createdAt,value
2023-03-12T00:01:13.717Z,16.40
2023-03-12T00:03:41.493Z,13.60
2023-03-12T00:06:11.010Z,13.88
2023-03-12T00:08:39.025Z,11.77
2023-03-12T00:11:26.720Z,9.57
2023-03-12T00:13:55.797Z,10.73
2023-03-12T00:16:25.506Z,11.23
2023-03-12T00:18:55.092Z,12.68
2023-03-12T00:21:22.831Z,11.73
2023-03-12T00:23:51.473Z,10.07
2023-03-12T00:26:20.148Z,10.97
2023-03-12T00:28:48.787Z,16.13
2023-03-12T00:31:18.445Z,13.37
2023-03-12T00:33:49.398Z,13.98
2023-03-12T00:36:17.436Z,17.73
2023-03-12T00:38:45.353Z,18.52
2023-03-12T00:41:13.048Z,14.38
2023-03-12T00:43:40.768Z,13.80
2023-03-12T00:46:08.512Z,16.65
2023-03-12T00:48:36.240Z,14.27
2023-03-12T00:51:05.826Z,17.08
2023-03-12T00:53:33.493Z,18.27
2023-03-12T00:56:01.120Z,18.30
2023-03-12T00:58:28.826Z,15.93
2023-03-12T01:00:56.508Z,19.38
2023-03-12T01:03:24.264Z,18.88
2023-03-12T01:05:55.698Z,15.82
2023-03-12T01:08:25.141Z,15.18
2023-03-12T01:10:53.032Z,19.58
2023-03-12T01:13:36.141Z,12.77
2023-03-12T01:16:03.870Z,14.63
2023-03-12T01:18:34.413Z,15.13
2023-03-12T01:21:02.088Z,11.82
2023-03-12T01:23:31.634Z,13.65
2023-03-12T01:25:59.490Z,15.73
2023-03-12T01:28:27.483Z,15.97
2023-03-12T01:30:55.189Z,15.00
2023-03-12T01:33:23.523Z,12.30
2023-03-12T01:35:51.427Z,13.57
2023-03-12T01:38:20.888Z,14.27
2023-03-12T01:40:50.075Z,13.20
2023-03-12T01:43:27.573Z,16.92
2023-03-12T01:46:24.919Z,12.23
2023-03-12T01:48:56.325Z,11.70
2023-03-12T01:51:27.156Z,12.57
2023-03-12T01:53:57.581Z,15.02
2023-03-12T01:56:28.701Z,13.30
2023-03-12T01:58:59.098Z,15.07
2023-03-12T02:01:27.227Z,16.00
2023-03-12T02:03:55.709Z,15.25
2023-03-12T02:06:27.610Z,12.20
2023-03-12T02:08:55.937Z,10.45
2023-03-12T02:11:23.602Z,10.98
2023-03-12T02:13:52.766Z,17.67
2023-03-12T02:16:21.121Z,12.38
2023-03-12T02:18:50.260Z,14.10
2023-03-12T02:21:23.450Z,14.40
2023-03-12T02:23:57.643Z,14.05
2023-03-12T02:26:27.816Z,15.80
2023-03-12T02:28:55.765Z,15.00
2023-03-12T02:31:25.748Z,10.55
2023-03-12T02:33:56.057Z,13.35
2023-03-12T02:36:23.776Z,13.77
2023-03-12T02:38:52.788Z,13.45
2023-03-12T02:41:23.540Z,14.63
2023-03-12T02:43:58.208Z,12.02
2023-03-12T02:46:26.382Z,11.65
2023-03-12T02:48:55.212Z,11.90
2023-03-12T02:51:22.886Z,12.32
2023-03-12T02:53:54.885Z,13.68
2023-03-12T02:56:23.589Z,14.82
2023-03-12T02:58:53.801Z,14.30
2023-03-12T03:01:21.995Z,10.70
2023-03-12T03:03:49.984Z,10.65
2023-03-12T03:06:18.326Z,14.10
2023-03-12T03:08:46.207Z,14.57
2023-03-12T03:11:14.454Z,11.27
2023-03-12T03:13:42.242Z,16.17
2023-03-12T03:16:12.466Z,12.75
2023-03-12T03:18:40.343Z,14.48
2023-03-12T03:21:09.432Z,8.40
2023-03-12T03:23:37.914Z,11.43
2023-03-12T03:26:05.897Z,10.95
2023-03-12T03:31:20.389Z,11.32
2023-03-12T03:33:48.096Z,10.83
2023-03-12T03:36:16.562Z,10.02
2023-03-12T03:38:49.296Z,7.97
2023-03-12T03:41:17.960Z,11.70
2023-03-12T03:43:45.678Z,10.30
2023-03-12T03:46:14.765Z,11.10
2023-03-12T03:48:44.186Z,12.63
2023-03-12T03:51:12.883Z,8.80
2023-03-12T03:53:41.302Z,11.30
2023-03-12T03:56:09.228Z,8.25
2023-03-12T03:58:36.939Z,8.18
2023-03-12T04:01:06.185Z,15.13
2023-03-12T04:03:37.079Z,9.38
2023-03-12T04:06:07.984Z,8.67
2023-03-12T04:08:37.243Z,8.75
2023-03-12T04:11:08.668Z,12.27
2023-03-12T04:13:36.551Z,12.85
2023-03-12T04:16:04.551Z,9.55
2023-03-12T04:18:32.377Z,8.85
2023-03-12T04:21:00.347Z,7.43
2023-03-12T04:23:29.586Z,9.48
2023-03-12T04:25:57.373Z,11.15
2023-03-12T04:28:25.222Z,12.37
2023-03-12T04:30:56.364Z,8.88
2023-03-12T04:33:24.097Z,12.35
2023-03-12T04:35:53.049Z,8.07
2023-03-12T04:38:21.379Z,8.35
2023-03-12T04:40:58.697Z,9.15
2023-03-12T04:43:26.483Z,12.50
2023-03-12T04:45:54.293Z,9.98
2023-03-12T04:48:22.057Z,7.22
2023-03-12T04:50:50.150Z,7.15
2023-03-12T04:53:17.883Z,10.30
2023-03-12T04:55:45.616Z,8.38
2023-03-12T04:58:14.773Z,10.13
2023-03-12T05:00:42.600Z,9.23
2023-03-12T05:03:10.454Z,9.88
2023-03-12T05:05:38.254Z,6.83
2023-03-12T05:08:06.617Z,12.15
2023-03-12T05:10:34.465Z,10.88
2023-03-12T05:13:02.166Z,6.93
2023-03-12T05:15:31.410Z,7.63
2023-03-12T05:17:59.130Z,6.80
2023-03-12T05:20:26.843Z,8.25
2023-03-12T05:22:54.549Z,8.73
2023-03-12T05:25:24.552Z,13.52
2023-03-12T05:27:52.235Z,5.70
2023-03-12T05:30:20.238Z,7.07
2023-03-12T05:32:49.347Z,9.07
2023-03-12T05:35:17.202Z,8.07
2023-03-12T05:37:45.057Z,7.82
2023-03-12T05:40:13.815Z,7.32
2023-03-12T05:42:41.490Z,5.60
2023-03-12T05:45:10.428Z,8.90
2023-03-12T05:47:38.124Z,9.70
2023-03-12T05:50:09.531Z,6.67
2023-03-12T05:52:37.298Z,8.55
2023-03-12T05:55:05.670Z,7.67
2023-03-12T05:57:33.361Z,8.48
2023-03-12T06:00:01.048Z,8.70
2023-03-12T06:02:28.858Z,7.80
2023-03-12T06:04:58.396Z,10.23
2023-03-12T06:07:27.869Z,9.70
2023-03-12T06:09:55.694Z,7.15
2023-03-12T06:12:23.382Z,7.78
2023-03-12T06:14:51.079Z,10.25
2023-03-12T06:17:18.762Z,6.55
2023-03-12T06:19:47.734Z,9.43
2023-03-12T06:22:15.407Z,6.78
2023-03-12T06:24:47.337Z,6.38
2023-03-12T06:27:15.119Z,4.40
2023-03-12T06:29:43.046Z,6.97
2023-03-12T06:32:10.726Z,6.03
2023-03-12T06:34:38.383Z,5.63
2023-03-12T06:37:06.284Z,5.03
2023-03-12T06:39:34.586Z,4.85
2023-03-12T06:42:03.704Z,5.90
2023-03-12T06:44:31.506Z,7.38
2023-03-12T06:46:59.189Z,7.17
2023-03-12T06:49:27.447Z,3.67
2023-03-12T06:51:57.097Z,7.60
2023-03-12T06:54:25.273Z,5.80
2023-03-12T06:56:53.160Z,4.15
2023-03-12T06:59:46.610Z,7.20
2023-03-12T07:02:15.362Z,8.65
2023-03-12T07:04:43.214Z,6.35
2023-03-12T07:07:11.957Z,6.43
2023-03-12T07:09:39.728Z,6.03
2023-03-12T07:12:07.967Z,7.82
2023-03-12T07:14:37.170Z,6.45
2023-03-12T07:17:05.096Z,4.90
2023-03-12T07:19:32.938Z,10.40
2023-03-12T07:22:00.641Z,8.70
2023-03-12T07:24:28.346Z,7.78
2023-03-12T07:26:56.106Z,8.27
2023-03-12T07:29:23.866Z,5.78
2023-03-12T07:31:52.945Z,5.82
2023-03-12T07:34:20.694Z,7.45
2023-03-12T07:36:48.633Z,4.17
2023-03-12T07:39:16.449Z,9.80
2023-03-12T07:41:44.683Z,4.13
2023-03-12T07:44:12.450Z,4.47
2023-03-12T07:46:40.436Z,4.05
2023-03-12T07:49:09.656Z,7.50
2023-03-12T07:51:37.383Z,6.32
2023-03-12T07:54:05.347Z,8.23
2023-03-12T07:56:35.074Z,10.73
2023-03-12T07:59:03.770Z,7.30
2023-03-12T08:01:32.379Z,6.10
2023-03-12T08:04:00.262Z,6.40
2023-03-12T08:06:29.618Z,8.45
2023-03-12T08:08:59.275Z,8.13
2023-03-12T08:11:26.962Z,5.83
2023-03-12T08:13:54.671Z,6.95
2023-03-12T08:16:22.384Z,8.20
2023-03-12T08:18:52.296Z,9.27
2023-03-12T08:21:20.234Z,10.43
2023-03-12T08:23:49.325Z,5.47
2023-03-12T08:26:16.972Z,8.53
2023-03-12T08:28:44.974Z,9.80
2023-03-12T08:31:12.666Z,6.28
2023-03-12T08:33:43.509Z,4.20
2023-03-12T08:36:11.491Z,4.32
2023-03-12T08:38:39.274Z,7.10
2023-03-12T08:41:08.433Z,4.30
2023-03-12T08:43:36.143Z,6.30
2023-03-12T08:46:04.813Z,11.95
2023-03-12T08:48:33.250Z,11.25
2023-03-12T08:51:04.299Z,7.43
2023-03-12T08:53:33.032Z,6.43
2023-03-12T08:56:00.772Z,7.07
2023-03-12T08:58:30.464Z,7.55
2023-03-12T09:00:58.799Z,5.40
2023-03-12T09:03:27.262Z,7.97
2023-03-12T09:06:04.527Z,6.57
2023-03-12T09:08:34.034Z,8.35
2023-03-12T09:11:03.111Z,6.53
2023-03-12T09:13:50.789Z,8.50
2023-03-12T09:16:20.279Z,6.10
2023-03-12T09:18:48.162Z,7.95
2023-03-12T09:21:15.852Z,7.63
2023-03-12T09:23:43.593Z,9.48
2023-03-12T09:26:11.803Z,8.00
2023-03-12T09:28:40.924Z,6.70
2023-03-12T09:31:08.633Z,12.68
2023-03-12T09:33:36.347Z,7.90
2023-03-12T09:36:04.730Z,9.77
2023-03-12T09:38:35.385Z,6.47
2023-03-12T09:41:05.525Z,7.93
2023-03-12T09:43:38.596Z,10.45
2023-03-12T09:46:12.748Z,8.10
2023-03-12T09:48:40.668Z,12.07
2023-03-12T09:51:15.724Z,5.93
2023-03-12T09:53:47.160Z,8.18
2023-03-12T09:56:17.525Z,7.80
2023-03-12T09:58:48.290Z,9.15
2023-03-12T10:01:30.760Z,9.35
2023-03-12T10:04:07.374Z,8.57
2023-03-12T10:06:36.854Z,10.50
2023-03-12T10:09:13.844Z,10.43
2023-03-12T10:11:47.810Z,7.43
2023-03-12T10:14:26.666Z,8.27
2023-03-12T10:17:03.898Z,11.20
2023-03-12T10:19:47.849Z,10.07
2023-03-12T10:22:23.287Z,9.32
2023-03-12T10:24:57.519Z,8.10
2023-03-12T10:27:27.098Z,10.23
2023-03-12T10:29:56.123Z,7.30
2023-03-12T10:32:28.753Z,6.53
2023-03-12T10:34:58.030Z,10.70
2023-03-12T10:40:46.846Z,10.50
2023-03-12T10:43:14.497Z,9.87
2023-03-12T10:45:46.145Z,12.80
2023-03-12T10:48:20.474Z,11.27
2023-03-12T10:51:02.113Z,9.83
2023-03-12T10:53:32.270Z,15.23
2023-03-12T10:56:01.864Z,10.95
2023-03-12T10:58:33.999Z,8.05
2023-03-12T11:01:03.864Z,8.95
2023-03-12T11:03:33.918Z,9.70
2023-03-12T11:06:03.848Z,7.70
2023-03-12T11:08:35.775Z,11.75
2023-03-12T11:11:05.781Z,8.38
2023-03-12T11:13:34.845Z,10.32
2023-03-12T11:16:03.346Z,10.20
2023-03-12T11:18:34.668Z,14.05
2023-03-12T11:21:24.565Z,14.73
2023-03-12T11:24:11.681Z,12.20
2023-03-12T11:26:47.538Z,14.52
2023-03-12T11:29:28.282Z,14.53
2023-03-12T11:32:03.860Z,13.93
2023-03-12T11:34:35.874Z,15.10
2023-03-12T11:37:09.128Z,14.07
2023-03-12T11:39:45.509Z,13.98
2023-03-12T11:42:21.870Z,13.63
2023-03-12T11:44:56.468Z,14.02
2023-03-12T11:47:37.220Z,12.73
2023-03-12T11:50:16.799Z,13.10
2023-03-12T11:52:52.628Z,16.98
2023-03-12T11:55:24.019Z,15.73
2023-03-12T11:58:02.957Z,16.55
2023-03-12T12:00:35.170Z,19.77
2023-03-12T12:03:45.622Z,17.50
2023-03-12T12:06:19.156Z,19.38
2023-03-12T12:08:55.580Z,20.00
2023-03-12T12:11:29.499Z,19.33
2023-03-12T12:14:07.156Z,25.45
2023-03-12T12:16:48.633Z,23.13
2023-03-12T12:19:24.189Z,24.20
2023-03-12T12:22:05.069Z,21.75
2023-03-12T12:24:42.526Z,18.13
2023-03-12T12:30:11.202Z,16.83
2023-03-12T12:32:52.203Z,20.42
2023-03-12T12:35:26.850Z,18.23
2023-03-12T12:37:57.889Z,20.98
2023-03-12T12:40:30.240Z,21.52
2023-03-12T12:43:07.053Z,18.98
2023-03-12T12:45:34.711Z,17.73
2023-03-12T12:48:04.523Z,20.05
2023-03-12T12:50:35.886Z,23.55
2023-03-12T12:53:15.371Z,19.55
2023-03-12T12:55:48.046Z,22.02
2023-03-12T12:58:21.659Z,21.75
2023-03-12T13:00:51.093Z,18.88
2023-03-12T13:03:20.620Z,15.73
2023-03-12T13:05:56.074Z,17.60
2023-03-12T13:08:37.253Z,17.52
2023-03-12T13:11:18.325Z,17.17
2023-03-12T13:13:51.112Z,14.13
2023-03-12T13:16:22.624Z,16.85
2023-03-12T13:19:01.092Z,24.55
2023-03-12T13:21:34.335Z,18.55
2023-03-12T13:24:13.446Z,18.92
2023-03-12T13:26:52.293Z,22.58
2023-03-12T13:29:37.736Z,20.10
2023-03-12T13:32:06.345Z,21.17
2023-03-12T13:34:47.063Z,19.60
2023-03-12T13:37:29.471Z,22.40
2023-03-12T13:40:07.235Z,23.77
2023-03-12T13:42:41.893Z,21.85
2023-03-12T13:45:23.950Z,22.75
2023-03-12T13:47:55.885Z,21.27
2023-03-12T13:50:24.345Z,24.38
2023-03-12T13:53:02.107Z,24.87
2023-03-12T13:55:32.392Z,23.67
2023-03-12T13:58:05.153Z,26.15
2023-03-12T14:00:40.639Z,25.93
2023-03-12T14:03:14.064Z,29.25
2023-03-12T14:05:48.561Z,27.33
2023-03-12T14:08:36.309Z,24.60
2023-03-12T14:11:18.662Z,27.63
2023-03-12T14:14:10.597Z,23.63
2023-03-12T14:16:42.208Z,25.97
2023-03-12T14:19:12.062Z,26.20
2023-03-12T14:21:40.639Z,21.17
2023-03-12T14:24:11.870Z,19.40
2023-03-12T14:26:41.247Z,21.92
2023-03-12T14:32:04.632Z,22.13
2023-03-12T14:34:36.239Z,20.23
2023-03-12T14:37:06.172Z,21.95
2023-03-12T14:39:35.986Z,22.13
2023-03-12T14:42:07.883Z,21.43
2023-03-12T14:44:37.755Z,21.38
2023-03-12T14:47:10.097Z,19.90
2023-03-12T14:49:41.920Z,20.58
2023-03-12T14:52:12.598Z,21.23
2023-03-12T14:54:40.568Z,21.67
2023-03-12T14:57:15.577Z,23.45
2023-03-12T14:59:43.249Z,22.20
2023-03-12T15:02:14.576Z,20.40
2023-03-12T15:04:42.686Z,23.27
2023-03-12T15:07:13.047Z,24.15
2023-03-12T15:09:43.676Z,23.38
2023-03-12T15:12:39.838Z,25.85
2023-03-12T15:15:08.970Z,24.10
2023-03-12T15:17:37.031Z,20.42
2023-03-12T15:20:09.185Z,17.17
2023-03-12T15:22:38.051Z,21.10
2023-03-12T15:25:26.588Z,21.95
2023-03-12T15:28:06.769Z,19.50
2023-03-12T15:30:35.628Z,18.80
2023-03-12T15:33:08.161Z,19.00
2023-03-12T15:35:36.411Z,20.88
2023-03-12T15:38:04.650Z,23.38
2023-03-12T15:40:32.684Z,20.77
2023-03-12T15:43:03.291Z,20.58
2023-03-12T15:45:37.640Z,22.25
2023-03-12T15:48:13.609Z,15.32
2023-03-12T15:50:43.066Z,20.17
2023-03-12T15:53:26.760Z,9.27
2023-03-12T15:56:02.620Z,22.42
2023-03-12T15:58:31.970Z,27.25
2023-03-12T16:01:10.516Z,30.42
2023-03-12T16:03:38.981Z,25.70
2023-03-12T16:06:07.218Z,17.48
2023-03-12T16:08:39.859Z,26.40
2023-03-12T16:11:12.703Z,14.20
2023-03-12T16:13:42.028Z,14.60
2023-03-12T16:16:13.563Z,19.70
2023-03-12T16:18:41.683Z,21.00
2023-03-12T16:21:09.773Z,30.55
2023-03-12T16:23:38.084Z,30.97
2023-03-12T16:26:06.356Z,27.47
2023-03-12T16:28:35.480Z,30.33
2023-03-12T16:31:03.186Z,22.43
2023-03-12T16:36:43.762Z,25.45
2023-03-12T16:39:11.410Z,33.65
2023-03-12T16:41:39.403Z,26.02
2023-03-12T16:44:08.172Z,20.00
2023-03-12T16:46:36.263Z,28.48
2023-03-12T16:49:05.394Z,24.07
2023-03-12T16:51:33.129Z,24.20
2023-03-12T16:54:09.626Z,24.60
2023-03-12T16:56:38.334Z,22.80
2023-03-12T16:59:07.505Z,18.13
2023-03-12T17:01:35.303Z,26.83
2023-03-12T17:04:04.892Z,29.67
2023-03-12T17:06:34.577Z,25.10
2023-03-12T17:09:02.301Z,25.65
2023-03-12T17:11:32.898Z,29.08
2023-03-12T17:14:02.502Z,22.48
2023-03-12T17:16:30.219Z,26.40
2023-03-12T17:18:58.120Z,23.80
2023-03-12T17:21:25.779Z,27.02
2023-03-12T17:23:55.199Z,19.80
2023-03-12T17:26:22.896Z,26.35
2023-03-12T17:28:51.501Z,25.77
2023-03-12T17:31:19.147Z,31.08
2023-03-12T17:33:46.848Z,28.42
2023-03-12T17:36:14.484Z,26.53
2023-03-12T17:38:42.170Z,32.45
2023-03-12T17:41:25.537Z,27.30
2023-03-12T17:43:54.911Z,25.20
2023-03-12T17:46:23.126Z,33.38
2023-03-12T17:48:50.935Z,26.50
2023-03-12T17:51:18.599Z,33.97
2023-03-12T17:53:46.228Z,28.00
2023-03-12T17:56:17.930Z,23.05
2023-03-12T17:58:46.382Z,31.38
2023-03-12T18:01:14.072Z,31.00
2023-03-12T18:03:44.144Z,23.25
2023-03-12T18:09:30.261Z,38.08
2023-03-12T18:11:59.312Z,34.58
2023-03-12T18:14:26.957Z,29.77
2023-03-12T18:16:54.607Z,28.33
2023-03-12T18:19:23.663Z,44.65
2023-03-12T18:21:51.394Z,32.88
2023-03-12T18:24:19.044Z,37.97
2023-03-12T18:26:49.404Z,28.80
2023-03-12T18:29:18.496Z,39.72
2023-03-12T18:31:46.285Z,28.52
2023-03-12T18:34:13.972Z,32.30
2023-03-12T18:36:41.710Z,34.63
2023-03-12T18:39:09.820Z,32.73
2023-03-12T18:41:40.755Z,42.73
2023-03-12T18:44:09.451Z,40.53
2023-03-12T18:46:38.536Z,44.40
2023-03-12T18:49:07.658Z,35.10
2023-03-12T18:51:35.777Z,35.67
2023-03-12T18:54:03.721Z,44.30
2023-03-12T18:56:31.402Z,40.55
2023-03-12T18:58:59.038Z,30.50
2023-03-12T19:01:27.174Z,29.17
2023-03-12T19:03:56.379Z,37.95
2023-03-12T19:06:24.041Z,34.40
2023-03-12T19:08:51.702Z,45.13
2023-03-12T19:11:19.556Z,34.73
2023-03-12T19:13:52.186Z,36.78
2023-03-12T19:16:21.980Z,34.70
2023-03-12T19:18:52.577Z,39.83
2023-03-12T19:21:22.619Z,36.30
2023-03-12T19:23:50.662Z,33.83
2023-03-12T19:26:18.334Z,42.38
2023-03-12T19:28:46.380Z,40.47
2023-03-12T19:31:15.566Z,41.28
2023-03-12T19:33:44.220Z,27.83
2023-03-12T19:36:11.892Z,41.03
2023-03-12T19:38:41.440Z,34.13
2023-03-12T19:41:10.026Z,31.43
2023-03-12T19:43:52.642Z,31.05
2023-03-12T19:46:20.439Z,31.75
2023-03-12T19:48:48.193Z,36.10
2023-03-12T19:51:15.851Z,29.27
2023-03-12T19:53:45.180Z,36.38
2023-03-12T19:56:12.881Z,30.17
2023-03-12T19:58:40.571Z,26.52
2023-03-12T20:01:08.479Z,31.58
2023-03-12T20:03:43.159Z,28.30
2023-03-12T20:06:12.234Z,32.63
2023-03-12T20:08:40.003Z,30.63
2023-03-12T20:11:10.701Z,33.67
2023-03-12T20:13:39.336Z,30.98
2023-03-12T20:16:08.870Z,30.75
2023-03-12T20:18:36.659Z,33.53
2023-03-12T20:21:04.935Z,35.75
2023-03-12T20:23:55.886Z,31.45
2023-03-12T20:26:25.211Z,30.83
2023-03-12T20:28:53.082Z,27.60
2023-03-12T20:31:20.873Z,30.65
2023-03-12T20:33:48.775Z,33.80
2023-03-12T20:36:16.433Z,29.45
2023-03-12T20:38:44.383Z,29.27
2023-03-12T20:41:14.108Z,32.67
2023-03-12T20:43:43.859Z,35.10
2023-03-12T20:46:12.244Z,30.65
2023-03-12T20:48:40.138Z,36.75
2023-03-12T20:51:07.799Z,33.03
2023-03-12T20:53:35.470Z,35.97
2023-03-12T20:59:46.384Z,29.45
2023-03-12T21:02:15.113Z,36.78
2023-03-12T21:04:43.050Z,27.27
2023-03-12T21:07:10.765Z,26.30
2023-03-12T21:09:38.430Z,31.02
2023-03-12T21:12:06.426Z,30.73
2023-03-12T21:14:34.476Z,26.98
2023-03-12T21:17:03.633Z,25.30
2023-03-12T21:19:31.485Z,34.73
2023-03-12T21:21:59.194Z,38.50
2023-03-12T21:24:26.887Z,30.37
2023-03-12T21:26:54.572Z,31.23
2023-03-12T21:29:22.274Z,26.23
2023-03-12T21:31:53.718Z,28.23
2023-03-12T21:34:23.077Z,28.67
2023-03-12T21:36:50.883Z,30.83
2023-03-12T21:39:40.069Z,22.92
2023-03-12T21:42:07.712Z,23.50
2023-03-12T21:44:35.915Z,27.70
2023-03-12T21:47:03.620Z,29.85
2023-03-12T21:49:33.562Z,27.60
2023-03-12T21:52:01.295Z,34.45
2023-03-12T21:54:32.785Z,26.00
2023-03-12T21:57:02.659Z,34.88
2023-03-12T21:59:31.344Z,28.15
2023-03-12T22:01:59.490Z,26.00
2023-03-12T22:04:27.402Z,32.22
2023-03-12T22:06:56.676Z,33.30
2023-03-12T22:09:24.578Z,34.35
2023-03-12T22:11:52.254Z,31.77
2023-03-12T22:14:19.995Z,33.30
2023-03-12T22:16:47.720Z,32.10
2023-03-12T22:19:15.377Z,29.48
2023-03-12T22:21:43.590Z,28.70
2023-03-12T22:24:13.044Z,31.80
2023-03-12T22:26:40.762Z,27.88
2023-03-12T22:29:08.488Z,30.55
2023-03-12T22:31:36.329Z,31.35
2023-03-12T22:34:04.548Z,34.55
2023-03-12T22:36:32.222Z,32.78
2023-03-12T22:38:59.908Z,32.00
2023-03-12T22:41:30.466Z,28.23
2023-03-12T22:44:02.191Z,32.45
2023-03-12T22:46:30.399Z,36.95
2023-03-12T22:48:59.461Z,35.00
2023-03-12T22:51:27.828Z,29.00
2023-03-12T22:53:55.807Z,29.27
2023-03-12T22:56:24.396Z,28.45
2023-03-12T22:58:53.434Z,26.15
2023-03-12T23:01:22.769Z,30.52
2023-03-12T23:03:51.326Z,31.20
2023-03-12T23:06:20.646Z,27.40
2023-03-12T23:08:48.956Z,24.23
2023-03-12T23:11:17.118Z,28.70
2023-03-12T23:13:45.848Z,22.75
2023-03-12T23:16:17.318Z,33.50
2023-03-12T23:18:45.585Z,24.65
2023-03-12T23:21:14.964Z,26.83
2023-03-12T23:23:44.027Z,30.30
2023-03-12T23:26:19.334Z,25.77
2023-03-12T23:28:47.604Z,28.80
2023-03-12T23:31:17.364Z,24.05
2023-03-12T23:33:45.353Z,33.80
2023-03-12T23:36:15.067Z,40.53
2023-03-12T23:38:43.443Z,34.28
2023-03-12T23:41:39.525Z,33.28
2023-03-12T23:44:07.399Z,27.10
2023-03-12T23:46:36.591Z,23.65
2023-03-12T23:49:04.310Z,19.98
2023-03-12T23:51:33.706Z,26.08
2023-03-12T23:54:05.127Z,30.13
2023-03-12T23:56:34.848Z,32.47
2023-03-12T23:59:02.605Z,23.80
